createdAt,value
2018-10-21T00:01:23.810Z,6.10
2018-10-21T00:03:52.547Z,6.00
2018-10-21T00:06:21.174Z,5.90
2018-10-21T00:08:49.798Z,6.20
2018-10-21T00:11:18.441Z,6.20
2018-10-21T00:13:47.054Z,6.20
2018-10-21T00:16:15.747Z,6.00
2018-10-21T00:18:44.348Z,6.20
2018-10-21T00:21:13.079Z,6.20
2018-10-21T00:23:41.772Z,6.40
2018-10-21T00:26:10.449Z,5.90
2018-10-21T00:28:39.139Z,6.30
2018-10-21T00:31:07.780Z,6.20
2018-10-21T00:33:36.479Z,5.60
2018-10-21T00:36:05.489Z,5.40
2018-10-21T00:38:34.158Z,5.30
2018-10-21T00:41:02.853Z,5.30
2018-10-21T00:43:31.560Z,5.50
2018-10-21T00:46:00.196Z,5.70
2018-10-21T00:48:28.893Z,5.70
2018-10-21T00:50:57.560Z,5.70
2018-10-21T00:53:26.235Z,5.30
2018-10-21T00:55:54.926Z,5.60
2018-10-21T00:58:23.688Z,5.90
2018-10-21T01:00:59.114Z,5.90
2018-10-21T01:03:27.850Z,5.60
2018-10-21T01:05:56.489Z,5.30
2018-10-21T01:08:25.097Z,5.20
2018-10-21T01:10:54.544Z,5.20
2018-10-21T01:13:26.006Z,5.20
2018-10-21T01:15:54.697Z,5.30
2018-10-21T01:18:24.446Z,5.10
2018-10-21T01:20:53.122Z,5.50
2018-10-21T01:23:21.806Z,5.70
2018-10-21T01:25:50.566Z,5.40
2018-10-21T01:28:19.224Z,5.20
2018-10-21T01:30:47.970Z,5.10
2018-10-21T01:33:16.688Z,5.20
2018-10-21T01:35:45.393Z,5.30
2018-10-21T01:38:14.109Z,5.20
2018-10-21T01:40:47.808Z,5.10
2018-10-21T01:43:33.028Z,4.90
2018-10-21T01:46:02.761Z,5.10
2018-10-21T01:48:32.190Z,5.10
2018-10-21T01:51:01.287Z,5.20
2018-10-21T01:53:30.009Z,5.30
2018-10-21T01:55:58.685Z,4.80
2018-10-21T01:58:27.310Z,4.80
2018-10-21T02:01:04.139Z,4.80
2018-10-21T02:03:32.758Z,5.00
2018-10-21T02:06:01.401Z,5.00
2018-10-21T02:08:30.004Z,5.00
2018-10-21T02:10:58.669Z,5.00
2018-10-21T02:13:27.325Z,5.10
2018-10-21T02:15:56.001Z,5.10
2018-10-21T02:18:25.381Z,5.00
2018-10-21T02:20:54.089Z,5.30
2018-10-21T02:23:22.758Z,4.70
2018-10-21T02:25:51.454Z,4.70
2018-10-21T02:28:20.167Z,4.80
2018-10-21T02:30:48.883Z,4.30
2018-10-21T02:33:17.519Z,4.60
2018-10-21T02:35:46.156Z,4.50
2018-10-21T02:38:14.865Z,4.40
2018-10-21T02:41:19.578Z,4.20
2018-10-21T02:43:48.259Z,3.90
2018-10-21T02:46:17.056Z,4.10
2018-10-21T02:48:45.746Z,4.30
2018-10-21T02:51:14.520Z,4.10
2018-10-21T02:53:43.071Z,4.50
2018-10-21T02:56:12.324Z,4.80
2018-10-21T02:58:41.493Z,4.70
2018-10-21T03:01:10.192Z,4.30
2018-10-21T03:03:39.428Z,4.10
2018-10-21T03:06:08.082Z,3.90
2018-10-21T03:08:37.460Z,3.50
2018-10-21T03:11:06.570Z,3.40
2018-10-21T03:13:35.327Z,3.40
2018-10-21T03:16:04.438Z,3.40
2018-10-21T03:18:35.279Z,3.40
2018-10-21T03:21:04.858Z,3.70
2018-10-21T03:23:34.375Z,3.70
2018-10-21T03:26:03.111Z,4.20
2018-10-21T03:28:32.372Z,4.10
2018-10-21T03:31:01.229Z,4.20
2018-10-21T03:33:30.152Z,4.30
2018-10-21T03:35:58.982Z,4.30
2018-10-21T03:38:27.901Z,4.20
2018-10-21T03:40:56.766Z,4.30
2018-10-21T03:43:25.638Z,4.30
2018-10-21T03:45:54.709Z,4.00
2018-10-21T03:48:23.558Z,4.00
2018-10-21T03:50:52.573Z,4.20
2018-10-21T03:53:21.246Z,3.70
2018-10-21T03:55:50.058Z,3.50
2018-10-21T03:58:18.885Z,3.50
2018-10-21T04:00:48.160Z,3.30
2018-10-21T04:03:16.932Z,3.50
2018-10-21T04:05:46.617Z,3.80
2018-10-21T04:08:15.645Z,4.00
2018-10-21T04:10:44.263Z,4.00
2018-10-21T04:13:12.925Z,4.10
2018-10-21T04:15:41.634Z,4.40
2018-10-21T04:18:10.281Z,4.30
2018-10-21T04:20:39.033Z,4.30
2018-10-21T04:23:08.011Z,4.20
2018-10-21T04:25:38.069Z,4.10
2018-10-21T04:28:08.122Z,4.20
2018-10-21T04:30:37.990Z,4.50
2018-10-21T04:33:17.863Z,4.30
2018-10-21T04:35:46.897Z,4.10
2018-10-21T04:40:25.668Z,3.60
2018-10-21T04:42:54.343Z,3.50
2018-10-21T04:45:23.707Z,3.60
2018-10-21T04:47:52.811Z,3.80
2018-10-21T04:50:21.482Z,3.80
2018-10-21T04:52:50.125Z,3.50
2018-10-21T04:55:19.050Z,3.80
2018-10-21T04:57:48.009Z,3.60
2018-10-21T05:00:19.136Z,3.90
2018-10-21T05:02:47.892Z,3.90
2018-10-21T05:05:16.900Z,4.10
2018-10-21T05:07:45.634Z,3.80
2018-10-21T05:10:24.413Z,3.70
2018-10-21T05:12:53.078Z,3.60
2018-10-21T05:15:22.681Z,3.70
2018-10-21T05:17:51.781Z,3.70
2018-10-21T05:20:20.515Z,3.80
2018-10-21T05:22:49.197Z,3.70
2018-10-21T05:25:17.900Z,3.70
2018-10-21T05:27:46.922Z,3.70
2018-10-21T05:30:15.730Z,3.70
2018-10-21T05:32:44.608Z,3.70
2018-10-21T05:35:14.463Z,3.70
2018-10-21T05:37:43.185Z,3.70
2018-10-21T05:40:13.655Z,3.70
2018-10-21T05:42:42.888Z,3.60
2018-10-21T05:45:12.584Z,3.50
2018-10-21T05:47:41.723Z,3.50
2018-10-21T05:50:11.811Z,3.50
2018-10-21T05:52:47.241Z,3.60
2018-10-21T05:55:16.395Z,3.70
2018-10-21T05:57:45.183Z,4.20
2018-10-21T06:00:16.135Z,4.40
2018-10-21T06:02:44.891Z,4.10
2018-10-21T06:05:31.897Z,4.20
2018-10-21T06:08:00.657Z,4.20
2018-10-21T06:10:29.484Z,4.10
2018-10-21T06:12:58.333Z,3.90
2018-10-21T06:15:26.994Z,3.90
2018-10-21T06:17:55.740Z,3.90
2018-10-21T06:20:27.815Z,4.00
2018-10-21T06:22:56.589Z,4.00
2018-10-21T06:25:25.492Z,4.00
2018-10-21T06:27:54.758Z,4.10
2018-10-21T06:30:23.446Z,4.00
2018-10-21T06:32:52.152Z,4.00
2018-10-21T06:35:20.950Z,4.10
2018-10-21T06:37:49.595Z,4.20
2018-10-21T06:40:18.298Z,4.20
2018-10-21T06:42:47.086Z,4.40
2018-10-21T06:45:15.834Z,4.50
2018-10-21T06:47:44.445Z,4.60
2018-10-21T06:50:16.969Z,4.50
2018-10-21T06:52:45.803Z,4.70
2018-10-21T06:55:14.526Z,4.70
2018-10-21T06:57:44.210Z,4.70
2018-10-21T07:00:13.346Z,4.50
2018-10-21T07:02:42.025Z,4.70
2018-10-21T07:05:22.811Z,4.80
2018-10-21T07:07:51.952Z,4.80
2018-10-21T07:10:21.458Z,4.80
2018-10-21T07:12:50.512Z,4.70
2018-10-21T07:15:19.704Z,4.70
2018-10-21T07:17:48.441Z,4.70
2018-10-21T07:20:17.427Z,4.80
2018-10-21T07:22:46.427Z,4.70
2018-10-21T07:25:15.108Z,4.70
2018-10-21T07:27:43.805Z,4.70
2018-10-21T07:30:13.510Z,4.80
2018-10-21T07:32:43.292Z,4.80
2018-10-21T07:35:14.190Z,4.90
2018-10-21T07:37:43.766Z,4.90
2018-10-21T07:40:13.334Z,5.10
2018-10-21T07:42:42.618Z,5.30
2018-10-21T07:45:12.053Z,5.50
2018-10-21T07:47:41.116Z,5.60
2018-10-21T07:50:10.156Z,5.70
2018-10-21T07:52:38.887Z,5.90
2018-10-21T07:55:08.018Z,6.00
2018-10-21T07:57:36.736Z,6.10
2018-10-21T08:00:05.640Z,6.30
2018-10-21T08:02:34.477Z,6.40
2018-10-21T08:05:03.534Z,6.60
2018-10-21T08:07:43.431Z,6.60
2018-10-21T08:10:24.124Z,6.50
2018-10-21T08:12:52.830Z,6.60
2018-10-21T08:15:21.574Z,7.00
2018-10-21T08:17:50.603Z,7.20
2018-10-21T08:20:19.331Z,7.40
2018-10-21T08:22:48.685Z,7.70
2018-10-21T08:25:17.481Z,7.80
2018-10-21T08:27:46.157Z,8.00
2018-10-21T08:30:15.292Z,8.10
2018-10-21T08:32:44.222Z,8.30
2018-10-21T08:35:13.004Z,8.40
2018-10-21T08:37:41.701Z,8.30
2018-10-21T08:40:10.627Z,8.50
2018-10-21T08:42:39.697Z,8.90
2018-10-21T08:45:09.305Z,9.00
2018-10-21T08:47:38.839Z,8.90
2018-10-21T08:50:08.094Z,9.30
2018-10-21T08:52:36.990Z,9.50
2018-10-21T08:55:07.183Z,9.90
2018-10-21T08:57:42.629Z,9.60
2018-10-21T09:00:15.144Z,9.70
2018-10-21T09:02:44.662Z,9.70
2018-10-21T09:05:14.738Z,9.50
2018-10-21T09:07:44.175Z,10.00
2018-10-21T09:10:14.192Z,10.00
2018-10-21T09:12:42.993Z,10.10
2018-10-21T09:15:14.012Z,10.20
2018-10-21T09:17:42.596Z,10.80
2018-10-21T09:20:13.760Z,10.80
2018-10-21T09:22:42.452Z,11.00
2018-10-21T09:25:12.105Z,11.30
2018-10-21T09:27:41.569Z,11.20
2018-10-21T09:30:12.149Z,11.50
2018-10-21T09:32:41.082Z,11.60
2018-10-21T09:35:12.501Z,11.50
2018-10-21T09:37:42.304Z,11.50
2018-10-21T09:40:13.387Z,11.60
2018-10-21T09:42:42.249Z,11.40
2018-10-21T09:45:13.903Z,11.30
2018-10-21T09:47:43.921Z,11.00
2018-10-21T09:50:13.254Z,11.10
2018-10-21T09:52:42.472Z,11.20
2018-10-21T09:55:16.833Z,11.30
2018-10-21T09:57:46.235Z,11.80
2018-10-21T10:00:20.659Z,12.00
2018-10-21T10:02:54.618Z,11.70
2018-10-21T10:05:23.476Z,12.30
2018-10-21T10:07:52.897Z,13.10
2018-10-21T10:10:21.725Z,13.00
2018-10-21T10:12:50.442Z,12.90
2018-10-21T10:15:19.250Z,12.90
2018-10-21T10:17:48.694Z,13.10
2018-10-21T10:20:17.383Z,13.50
2018-10-21T10:22:46.157Z,13.80
2018-10-21T10:25:14.977Z,14.00
2018-10-21T10:34:39.633Z,14.40
2018-10-21T10:37:08.850Z,14.70
2018-10-21T10:39:37.534Z,14.70
2018-10-21T10:42:06.454Z,14.70
2018-10-21T10:44:35.065Z,14.80
2018-10-21T10:47:03.946Z,14.60
2018-10-21T10:49:32.787Z,14.70
2018-10-21T10:52:01.460Z,15.00
2018-10-21T10:54:31.125Z,15.10
2018-10-21T10:56:59.888Z,15.20
2018-10-21T10:59:28.650Z,15.30
2018-10-21T11:01:57.367Z,15.20
2018-10-21T11:04:26.467Z,15.20
2018-10-21T11:06:55.289Z,15.50
2018-10-21T11:09:33.981Z,15.70
2018-10-21T11:12:02.773Z,15.70
2018-10-21T11:14:31.610Z,15.90
2018-10-21T11:17:00.313Z,15.50
2018-10-21T11:19:29.127Z,15.40
2018-10-21T11:21:58.578Z,15.60
2018-10-21T11:24:27.248Z,15.80
2018-10-21T11:26:56.041Z,15.90
2018-10-21T11:29:24.768Z,16.30
2018-10-21T11:31:53.469Z,16.40
2018-10-21T11:34:22.175Z,16.80
2018-10-21T11:36:50.960Z,16.20
2018-10-21T11:39:19.657Z,16.20
2018-10-21T11:41:48.656Z,16.40
2018-10-21T11:44:17.407Z,16.30
2018-10-21T11:46:46.176Z,16.60
2018-10-21T11:49:15.034Z,16.80
2018-10-21T11:51:43.685Z,17.00
2018-10-21T11:54:13.064Z,17.20
2018-10-21T11:56:41.901Z,17.20
2018-10-21T11:59:10.704Z,17.40
2018-10-21T12:01:39.822Z,17.30
2018-10-21T12:04:08.551Z,17.30
2018-10-21T12:06:37.273Z,17.40
2018-10-21T12:09:09.837Z,17.60
2018-10-21T12:11:38.774Z,17.40
2018-10-21T12:14:08.026Z,17.30
2018-10-21T12:16:36.720Z,17.00
2018-10-21T12:19:05.885Z,17.20
2018-10-21T12:21:34.756Z,17.10
2018-10-21T12:24:03.509Z,17.00
2018-10-21T12:26:32.265Z,16.90
2018-10-21T12:29:01.057Z,17.20
2018-10-21T12:31:29.866Z,17.40
2018-10-21T12:33:58.527Z,17.10
2018-10-21T12:36:27.426Z,17.30
2018-10-21T12:38:56.079Z,17.30
2018-10-21T12:41:24.723Z,17.40
2018-10-21T12:43:53.435Z,17.30
2018-10-21T12:46:22.287Z,17.40
2018-10-21T12:48:50.957Z,17.40
2018-10-21T12:51:19.725Z,17.40
2018-10-21T12:53:48.438Z,17.10
2018-10-21T12:56:17.224Z,17.20
2018-10-21T12:58:45.863Z,17.30
2018-10-21T13:01:14.647Z,17.70
2018-10-21T13:03:43.382Z,17.50
2018-10-21T13:06:12.127Z,17.30
2018-10-21T13:08:41.292Z,17.60
2018-10-21T13:11:10.104Z,17.70
2018-10-21T13:13:38.808Z,17.70
2018-10-21T13:16:07.543Z,17.90
2018-10-21T13:18:36.215Z,17.60
2018-10-21T13:21:04.932Z,17.60
2018-10-21T13:23:33.596Z,17.40
2018-10-21T13:26:02.391Z,17.10
2018-10-21T13:28:31.280Z,16.90
2018-10-21T13:31:00.057Z,16.80
2018-10-21T13:33:28.840Z,17.10
2018-10-21T13:35:57.675Z,16.90
2018-10-21T13:38:26.694Z,17.10
2018-10-21T13:40:55.763Z,17.10
2018-10-21T13:43:24.410Z,17.10
2018-10-21T13:48:49.118Z,17.00
2018-10-21T13:51:18.602Z,17.10
2018-10-21T13:53:47.836Z,17.00
2018-10-21T13:56:16.859Z,16.90
2018-10-21T13:58:45.577Z,16.70
2018-10-21T14:01:14.271Z,16.80
2018-10-21T14:03:43.612Z,16.70
2018-10-21T14:06:12.301Z,16.80
2018-10-21T14:08:47.625Z,16.90
2018-10-21T14:11:16.343Z,16.70
2018-10-21T14:13:45.134Z,16.30
2018-10-21T14:16:13.873Z,16.50
2018-10-21T14:18:42.699Z,16.60
2018-10-21T14:21:11.484Z,16.60
2018-10-21T14:23:40.165Z,16.80
2018-10-21T14:26:08.923Z,16.70
2018-10-21T14:28:37.654Z,16.70
2018-10-21T14:31:06.518Z,16.50
2018-10-21T14:33:35.296Z,16.40
2018-10-21T14:36:04.141Z,16.40
2018-10-21T14:38:33.163Z,16.30
2018-10-21T14:41:01.892Z,16.40
2018-10-21T14:43:36.988Z,16.40
2018-10-21T14:46:06.290Z,16.30
2018-10-21T14:48:34.897Z,16.40
2018-10-21T14:51:03.655Z,16.30
2018-10-21T14:53:32.331Z,16.20
2018-10-21T14:56:01.091Z,16.10
2018-10-21T14:58:29.789Z,16.00
2018-10-21T15:00:59.304Z,16.00
2018-10-21T15:03:28.168Z,16.10
2018-10-21T15:05:56.998Z,15.90
2018-10-21T15:08:25.784Z,15.80
2018-10-21T15:10:54.514Z,15.80
2018-10-21T15:13:23.235Z,15.90
2018-10-21T15:15:51.983Z,15.80
2018-10-21T15:18:28.427Z,15.70
2018-10-21T15:20:57.480Z,15.80
2018-10-21T15:23:26.279Z,15.70
2018-10-21T15:25:55.081Z,15.70
2018-10-21T15:28:23.761Z,15.70
2018-10-21T15:30:52.489Z,15.60
2018-10-21T15:33:21.232Z,15.60
2018-10-21T15:35:50.057Z,15.50
2018-10-21T15:38:19.017Z,15.50
2018-10-21T15:40:47.906Z,15.40
2018-10-21T15:43:16.462Z,15.40
2018-10-21T15:45:45.273Z,15.20
2018-10-21T15:48:13.920Z,15.20
2018-10-21T15:50:42.766Z,15.10
2018-10-21T15:53:11.712Z,15.00
2018-10-21T15:55:40.606Z,15.00
2018-10-21T15:58:09.368Z,14.90
2018-10-21T16:00:38.719Z,14.90
2018-10-21T16:03:07.474Z,14.70
2018-10-21T16:05:36.446Z,14.60
2018-10-21T16:08:05.716Z,14.50
2018-10-21T16:10:34.491Z,14.50
2018-10-21T16:13:03.476Z,14.40
2018-10-21T16:15:32.303Z,14.20
2018-10-21T16:18:01.120Z,14.10
2018-10-21T16:20:29.880Z,14.00
2018-10-21T16:22:58.662Z,13.90
2018-10-21T16:25:27.528Z,13.90
2018-10-21T16:27:56.333Z,13.70
2018-10-21T16:30:25.080Z,13.70
2018-10-21T16:32:53.989Z,13.50
2018-10-21T16:35:22.829Z,13.30
2018-10-21T16:37:51.610Z,13.20
2018-10-21T16:40:20.363Z,13.00
2018-10-21T16:42:49.192Z,13.00
2018-10-21T16:45:18.348Z,13.00
2018-10-21T16:47:47.116Z,12.90
2018-10-21T16:50:16.824Z,12.70
2018-10-21T16:52:46.658Z,12.70
2018-10-21T16:55:16.224Z,12.60
2018-10-21T16:57:45.082Z,12.60
2018-10-21T17:00:16.730Z,12.40
2018-10-21T17:02:45.568Z,12.20
2018-10-21T17:05:14.499Z,11.90
2018-10-21T17:07:43.127Z,11.80
2018-10-21T17:10:12.908Z,11.70
2018-10-21T17:12:41.347Z,11.80
2018-10-21T17:15:11.364Z,11.80
2018-10-21T17:17:41.120Z,11.80
2018-10-21T17:20:11.676Z,11.80
2018-10-21T17:22:41.505Z,11.70
2018-10-21T17:25:10.775Z,11.70
2018-10-21T17:27:39.955Z,11.50
2018-10-21T17:30:12.663Z,11.50
2018-10-21T17:32:41.462Z,11.40
2018-10-21T17:35:10.845Z,11.30
2018-10-21T17:37:40.066Z,11.40
2018-10-21T17:40:10.191Z,11.30
2018-10-21T17:42:39.313Z,11.20
2018-10-21T17:45:10.160Z,11.10
2018-10-21T17:47:38.919Z,11.20
2018-10-21T17:50:08.693Z,11.10
2018-10-21T17:52:37.786Z,11.00
2018-10-21T17:55:12.704Z,10.80
2018-10-21T17:57:41.493Z,10.70
2018-10-21T18:00:13.155Z,10.70
2018-10-21T18:02:42.163Z,10.70
2018-10-21T18:05:12.590Z,10.70
2018-10-21T18:07:41.830Z,10.60
2018-10-21T18:10:11.119Z,10.60
2018-10-21T18:12:39.861Z,10.50
2018-10-21T18:15:09.448Z,10.20
2018-10-21T18:17:38.853Z,10.10
2018-10-21T18:20:08.586Z,9.80
2018-10-21T18:22:37.344Z,9.80
2018-10-21T18:25:08.192Z,9.70
2018-10-21T18:27:37.981Z,9.70
2018-10-21T18:30:08.033Z,9.70
2018-10-21T18:32:36.920Z,9.60
2018-10-21T18:35:06.939Z,9.70
2018-10-21T18:37:36.394Z,9.60
2018-10-21T18:40:06.262Z,9.60
2018-10-21T18:42:35.111Z,9.50
2018-10-21T18:45:04.052Z,9.60
2018-10-21T18:47:33.075Z,9.30
2018-10-21T18:50:01.953Z,9.20
2018-10-21T18:52:30.830Z,9.20
2018-10-21T18:55:03.346Z,9.20
2018-10-21T18:57:32.310Z,9.20
2018-10-21T19:00:01.087Z,9.10
2018-10-21T19:02:29.954Z,9.10
2018-10-21T19:04:58.850Z,8.90
2018-10-21T19:07:27.730Z,8.70
2018-10-21T19:09:56.803Z,8.40
2018-10-21T19:12:26.463Z,8.40
2018-10-21T19:14:55.307Z,8.50
2018-10-21T19:17:24.089Z,8.60
2018-10-21T19:19:52.964Z,8.60
2018-10-21T19:22:21.706Z,8.70
2018-10-21T19:24:50.556Z,8.50
2018-10-21T19:27:20.707Z,8.40
2018-10-21T19:29:49.497Z,8.30
2018-10-21T19:32:18.259Z,7.70
2018-10-21T19:34:47.012Z,7.70
2018-10-21T19:37:15.788Z,7.90
2018-10-21T19:39:44.631Z,8.20
2018-10-21T19:42:13.581Z,8.40
2018-10-21T19:44:42.441Z,8.30
2018-10-21T19:47:11.329Z,8.40
2018-10-21T19:49:40.103Z,8.40
2018-10-21T19:52:08.941Z,8.20
2018-10-21T19:54:37.913Z,7.90
2018-10-21T19:57:06.649Z,8.10
2018-10-21T19:59:35.474Z,8.00
2018-10-21T20:02:04.285Z,8.00
2018-10-21T20:04:33.089Z,8.00
2018-10-21T20:07:02.028Z,8.20
2018-10-21T20:09:30.959Z,8.20
2018-10-21T20:11:59.834Z,8.20
2018-10-21T20:14:28.496Z,7.70
2018-10-21T20:16:57.209Z,7.70
2018-10-21T20:19:25.977Z,7.70
2018-10-21T20:21:54.852Z,7.80
2018-10-21T20:24:23.574Z,7.80
2018-10-21T20:26:53.233Z,7.80
2018-10-21T20:29:22.014Z,7.80
2018-10-21T20:31:50.879Z,7.60
2018-10-21T20:34:19.751Z,7.50
2018-10-21T20:36:48.940Z,7.40
2018-10-21T20:39:17.737Z,7.10
2018-10-21T20:41:46.461Z,7.10
2018-10-21T20:44:15.322Z,7.30
2018-10-21T20:46:44.127Z,7.50
2018-10-21T20:49:12.965Z,7.40
2018-10-21T20:51:41.977Z,7.40
2018-10-21T20:54:10.952Z,7.60
2018-10-21T20:56:39.595Z,7.50
2018-10-21T20:59:08.312Z,7.40
2018-10-21T21:01:37.208Z,7.30
2018-10-21T21:04:06.196Z,7.20
2018-10-21T21:06:35.065Z,7.30
2018-10-21T21:09:04.521Z,7.20
2018-10-21T21:11:33.376Z,7.10
2018-10-21T21:14:02.310Z,7.30
2018-10-21T21:16:31.145Z,7.10
2018-10-21T21:19:01.072Z,7.10
2018-10-21T21:21:29.795Z,7.10
2018-10-21T21:23:58.591Z,6.90
2018-10-21T21:26:27.269Z,6.90
2018-10-21T21:28:56.991Z,7.00
2018-10-21T21:31:25.734Z,6.80
2018-10-21T21:33:54.504Z,6.90
2018-10-21T21:36:23.900Z,6.90
2018-10-21T21:38:52.663Z,6.90
2018-10-21T21:41:21.387Z,6.80
2018-10-21T21:43:50.118Z,6.90
2018-10-21T21:46:18.892Z,7.00
2018-10-21T21:48:47.582Z,7.10
2018-10-21T21:51:16.326Z,6.70
2018-10-21T21:53:45.069Z,6.80
2018-10-21T21:56:13.730Z,6.90
2018-10-21T21:58:42.418Z,7.00
2018-10-21T22:01:11.188Z,6.70
2018-10-21T22:03:39.939Z,6.90
2018-10-21T22:06:08.675Z,6.70
2018-10-21T22:08:37.417Z,6.70
2018-10-21T22:11:06.407Z,6.80
2018-10-21T22:13:35.721Z,6.90
2018-10-21T22:16:04.744Z,6.80
2018-10-21T22:18:33.926Z,6.80
2018-10-21T22:21:02.669Z,6.80
2018-10-21T22:23:31.653Z,6.90
2018-10-21T22:26:00.405Z,6.80
2018-10-21T22:28:29.195Z,6.90
2018-10-21T22:30:57.941Z,7.10
2018-10-21T22:33:26.630Z,7.10
2018-10-21T22:35:55.368Z,7.00
2018-10-21T22:38:24.109Z,7.00
2018-10-21T22:40:52.818Z,7.00
2018-10-21T22:43:21.680Z,6.90
2018-10-21T22:45:50.424Z,7.00
2018-10-21T22:48:19.086Z,6.70
2018-10-21T22:50:47.762Z,6.50
2018-10-21T22:53:16.427Z,6.50
2018-10-21T22:55:45.117Z,6.80
2018-10-21T22:58:13.837Z,6.80
2018-10-21T23:00:43.181Z,6.70
2018-10-21T23:03:11.943Z,6.60
2018-10-21T23:05:40.787Z,6.60
2018-10-21T23:08:09.521Z,6.50
2018-10-21T23:10:38.232Z,6.40
2018-10-21T23:13:06.967Z,6.30
2018-10-21T23:15:35.720Z,6.30
2018-10-21T23:18:04.463Z,6.40
2018-10-21T23:20:33.181Z,6.30
2018-10-21T23:23:02.010Z,6.20
2018-10-21T23:25:30.730Z,6.40
2018-10-21T23:28:00.280Z,6.30
2018-10-21T23:30:28.972Z,6.30
2018-10-21T23:32:57.834Z,6.40
2018-10-21T23:35:26.544Z,6.30
2018-10-21T23:37:55.305Z,6.40
2018-10-21T23:40:24.022Z,6.30
2018-10-21T23:42:52.734Z,6.20
2018-10-21T23:45:21.436Z,6.30
2018-10-21T23:47:50.140Z,6.20
2018-10-21T23:50:18.922Z,6.40
2018-10-21T23:52:47.713Z,6.20
2018-10-21T23:55:16.513Z,6.30
2018-10-21T23:57:45.235Z,6.30
